Time,TemperatureF,DewpointF,PressureIn,WindDirection,WindDirectionDegrees,WindSpeedMPH,WindSpeedGustMPH,Humidity,HourlyPrecipIn,Conditions,Clouds,dailyrainin,SoftwareType,DateUTC
2013-03-23 00:00:00,47.2,42.0,29.75,NE,38,5.0,8.0,82,0.00,,,0.00,Wunderground v.1.15,2013-03-23 05:00:00,
2013-03-23 00:10:00,47.0,41.8,29.75,NE,36,6.0,6.0,82,0.00,,,0.00,Wunderground v.1.15,2013-03-23 05:10:00,
2013-03-23 00:20:00,46.9,42.0,29.75,NE,34,5.0,8.0,83,0.00,,,0.00,Wunderground v.1.15,2013-03-23 05:20:00,
2013-03-23 00:30:00,46.7,42.1,29.75,NE,42,5.0,5.0,84,0.00,,,0.00,Wunderground v.1.15,2013-03-23 05:30:00,
2013-03-23 00:40:00,46.5,41.9,29.76,NE,55,4.0,8.0,84,0.00,,,0.00,Wunderground v.1.15,2013-03-23 05:40:00,
2013-03-23 00:50:00,46.6,42.0,29.76,ENE,60,4.0,8.0,84,0.00,,,0.00,Wunderground v.1.15,2013-03-23 05:50:00,
2013-03-23 01:00:00,46.7,42.1,29.75,ENE,60,4.0,4.0,84,0.00,,,0.00,Wunderground v.1.15,2013-03-23 06:00:00,
2013-03-23 01:10:00,46.6,42.0,29.75,ENE,60,4.0,4.0,84,0.00,,,0.00,Wunderground v.1.15,2013-03-23 06:10:00,
2013-03-23 01:20:00,46.6,42.3,29.75,ENE,60,4.0,8.0,85,0.00,,,0.00,Wunderground v.1.15,2013-03-23 06:20:00,
2013-03-23 01:30:00,46.7,42.4,29.75,ENE,60,4.0,8.0,85,0.00,,,0.00,Wunderground v.1.15,2013-03-23 06:30:00,
2013-03-23 01:40:00,46.7,42.1,29.76,ENE,60,3.0,3.0,84,0.00,,,0.00,Wunderground v.1.15,2013-03-23 06:40:00,
2013-03-23 01:50:00,46.6,42.3,29.75,ENE,60,4.0,8.0,85,0.00,,,0.00,Wunderground v.1.15,2013-03-23 06:50:00,
2013-03-23 02:00:00,46.6,42.3,29.75,ENE,59,5.0,5.0,85,0.00,,,0.00,Wunderground v.1.15,2013-03-23 07:00:00,
2013-03-23 02:10:00,46.7,42.4,29.75,ENE,59,3.0,8.0,85,0.00,,,0.00,Wunderground v.1.15,2013-03-23 07:10:00,
2013-03-23 02:20:00,46.9,42.6,29.77,ENE,59,3.0,8.0,85,0.00,,,0.00,Wunderground v.1.15,2013-03-23 07:20:00,
2013-03-23 02:30:00,47.1,42.5,29.77,ENE,59,1.0,8.0,84,0.00,,,0.00,Wunderground v.1.15,2013-03-23 07:30:00,
2013-03-23 02:40:00,47.3,42.7,29.76,ENE,57,4.0,8.0,84,0.00,,,0.00,Wunderground v.1.15,2013-03-23 07:40:00,
2013-03-23 02:50:00,47.4,42.8,29.77,NE,55,4.0,4.0,84,0.00,,,0.00,Wunderground v.1.15,2013-03-23 07:50:00,
2013-03-23 03:00:00,47.4,42.8,29.78,NE,50,3.0,8.0,84,0.00,,,0.00,Wunderground v.1.15,2013-03-23 08:00:00,
2013-03-23 03:10:00,47.5,42.9,29.78,NE,50,4.0,8.0,84,0.00,,,0.00,Wunderground v.1.15,2013-03-23 08:10:00,
2013-03-23 03:40:00,47.7,43.1,29.76,NE,52,6.0,8.0,84,0.00,,,0.00,Wunderground v.1.15,2013-03-23 08:40:00,
2013-03-23 03:50:00,47.7,43.1,29.76,NE,53,5.0,8.0,84,0.00,,,0.00,Wunderground v.1.15,2013-03-23 08:50:00,
2013-03-23 04:00:00,47.7,43.4,29.76,NE,53,5.0,5.0,85,0.00,,,0.00,Wunderground v.1.15,2013-03-23 09:00:00,
2013-03-23 04:10:00,47.8,43.5,29.74,NE,51,6.0,6.0,85,0.00,,,0.00,Wunderground v.1.15,2013-03-23 09:10:00,
2013-03-23 04:20:00,47.9,43.6,29.74,NE,49,6.0,8.0,85,0.00,,,0.00,Wunderground v.1.15,2013-03-23 09:20:00,
2013-03-23 04:30:00,47.8,43.5,29.74,NE,48,7.0,8.0,85,0.00,,,0.00,Wunderground v.1.15,2013-03-23 09:30:00,
2013-03-23 04:40:00,47.8,43.5,29.74,NE,49,5.0,8.0,85,0.00,,,0.00,Wunderground v.1.15,2013-03-23 09:40:00,
2013-03-23 04:50:00,47.8,43.5,29.74,NE,49,5.0,8.0,85,0.00,,,0.00,Wunderground v.1.15,2013-03-23 09:50:00,
2013-03-23 05:00:00,47.9,43.6,29.75,NE,49,4.0,8.0,85,0.00,,,0.00,Wunderground v.1.15,2013-03-23 10:00:00,
2013-03-23 05:10:00,48.0,43.7,29.75,NE,49,5.0,5.0,85,0.00,,,0.00,Wunderground v.1.15,2013-03-23 10:10:00,
2013-03-23 05:20:00,48.1,43.8,29.75,NE,47,6.0,8.0,85,0.00,,,0.00,Wunderground v.1.15,2013-03-23 10:20:00,
2013-03-23 05:30:00,48.2,43.9,29.75,NE,47,6.0,6.0,85,0.00,,,0.00,Wunderground v.1.15,2013-03-23 10:30:00,
2013-03-23 05:40:00,48.1,43.8,29.75,NE,50,5.0,5.0,85,0.00,,,0.00,Wunderground v.1.15,2013-03-23 10:40:00,
2013-03-23 05:50:00,48.2,43.9,29.75,NE,40,6.0,8.0,85,0.00,,,0.00,Wunderground v.1.15,2013-03-23 10:50:00,
2013-03-23 06:00:00,48.1,43.8,29.75,NE,41,4.0,4.0,85,0.00,,,0.00,Wunderground v.1.15,2013-03-23 11:00:00,
2013-03-23 06:10:00,48.1,43.8,29.75,NE,41,3.0,8.0,85,0.00,,,0.00,Wunderground v.1.15,2013-03-23 11:10:00,
2013-03-23 06:20:00,48.0,43.7,29.76,NE,41,3.0,3.0,85,0.00,,,0.00,Wunderground v.1.15,2013-03-23 11:20:00,
2013-03-23 06:30:00,48.1,43.8,29.76,NE,41,2.0,8.0,85,0.00,,,0.00,Wunderground v.1.15,2013-03-23 11:30:00,
2013-03-23 06:40:00,48.1,43.8,29.77,NE,41,4.0,8.0,85,0.00,,,0.00,Wunderground v.1.15,2013-03-23 11:40:00,
2013-03-23 06:50:00,48.2,43.9,29.77,NNE,30,4.0,8.0,85,0.00,,,0.00,Wunderground v.1.15,2013-03-23 11:50:00,
2013-03-23 07:00:00,48.2,43.9,29.76,NE,35,7.0,8.0,85,0.00,,,0.00,Wunderground v.1.15,2013-03-23 12:00:00,
2013-03-23 07:10:00,48.1,44.1,29.76,NE,40,7.0,7.0,86,0.00,,,0.00,Wunderground v.1.15,2013-03-23 12:10:00,
2013-03-23 07:20:00,48.0,44.0,29.76,ENE,62,8.0,10.0,86,0.00,,,0.00,Wunderground v.1.15,2013-03-23 12:20:00,
2013-03-23 07:30:00,47.8,44.1,29.75,ENE,67,9.0,9.0,87,0.00,,,0.00,Wunderground v.1.15,2013-03-23 12:30:00,
2013-03-23 07:40:00,47.6,44.2,29.74,ENE,78,8.0,8.0,88,0.00,,,0.00,Wunderground v.1.15,2013-03-23 12:40:00,
2013-03-23 07:50:00,47.5,44.1,29.74,East,84,7.0,8.0,88,0.00,,,0.00,Wunderground v.1.15,2013-03-23 12:50:00,
2013-03-23 08:00:00,47.5,44.1,29.74,East,80,6.0,8.0,88,0.00,,,0.00,Wunderground v.1.15,2013-03-23 13:00:00,
2013-03-23 08:10:00,47.4,44.3,29.74,East,98,7.0,8.0,89,0.00,,,0.00,Wunderground v.1.15,2013-03-23 13:10:00,
2013-03-23 08:20:00,47.3,44.2,29.75,East,92,7.0,8.0,89,0.00,,,0.00,Wunderground v.1.15,2013-03-23 13:20:00,
2013-03-23 08:30:00,47.3,44.5,29.76,East,97,4.0,4.0,90,0.00,,,0.00,Wunderground v.1.15,2013-03-23 13:30:00,
2013-03-23 08:40:00,47.3,44.5,29.75,East,101,5.0,5.0,90,0.00,,,0.00,Wunderground v.1.15,2013-03-23 13:40:00,
2013-03-23 08:50:00,47.4,44.6,29.77,East,98,3.0,3.0,90,0.00,,,0.00,Wunderground v.1.15,2013-03-23 13:50:00,
2013-03-23 09:00:00,47.4,44.9,29.78,East,98,1.0,8.0,91,0.00,,,0.00,Wunderground v.1.15,2013-03-23 14:00:00,
2013-03-23 09:10:00,47.4,44.9,29.77,East,98,1.0,8.0,91,0.00,,,0.00,Wunderground v.1.15,2013-03-23 14:10:00,
2013-03-23 09:20:00,47.6,45.1,29.77,East,101,4.0,4.0,91,0.00,,,0.00,Wunderground v.1.15,2013-03-23 14:20:00,
2013-03-23 09:30:00,47.6,45.4,29.78,East,101,4.0,8.0,92,0.00,,,0.00,Wunderground v.1.15,2013-03-23 14:30:00,
2013-03-23 09:40:00,47.7,45.8,29.78,ESE,110,4.0,8.0,93,0.00,,,0.00,Wunderground v.1.15,2013-03-23 14:40:00,
2013-03-23 09:50:00,47.7,45.8,29.78,ESE,110,3.0,3.0,93,0.00,,,0.00,Wunderground v.1.15,2013-03-23 14:50:00,
2013-03-23 10:00:00,47.8,45.9,29.77,ESE,114,5.0,8.0,93,0.00,,,0.00,Wunderground v.1.15,2013-03-23 15:00:00,
2013-03-23 10:10:00,48.0,46.1,29.77,SE,126,5.0,5.0,93,0.00,,,0.00,Wunderground v.1.15,2013-03-23 15:10:00,
2013-03-23 10:20:00,48.2,46.3,29.76,SE,137,6.0,8.0,93,0.00,,,0.00,Wunderground v.1.15,2013-03-23 15:20:00,
2013-03-23 10:30:00,48.6,46.7,29.77,SE,145,6.0,6.0,93,0.00,,,0.00,Wunderground v.1.15,2013-03-23 15:30:00,
2013-03-23 10:40:00,48.8,46.6,29.76,SE,143,4.0,4.0,92,0.00,,,0.00,Wunderground v.1.15,2013-03-23 15:40:00,
2013-03-23 10:50:00,49.3,46.8,29.76,SE,145,6.0,8.0,91,0.00,,,0.00,Wunderground v.1.15,2013-03-23 15:50:00,
2013-03-23 11:00:00,49.6,47.1,29.75,SE,144,4.0,8.0,91,0.00,,,0.00,Wunderground v.1.15,2013-03-23 16:00:00,
2013-03-23 11:10:00,50.2,47.4,29.75,SE,142,6.0,6.0,90,0.00,,,0.00,Wunderground v.1.15,2013-03-23 16:10:00,
2013-03-23 11:20:00,50.5,47.4,29.75,SE,145,5.0,8.0,89,0.00,,,0.00,Wunderground v.1.15,2013-03-23 16:20:00,
2013-03-23 11:40:00,52.3,48.5,29.75,SSE,164,6.0,8.0,87,0.00,,,0.00,Wunderground v.1.15,2013-03-23 16:40:00,
2013-03-23 11:50:00,53.3,49.5,29.74,South,172,6.0,8.0,87,0.00,,,0.00,Wunderground v.1.15,2013-03-23 16:50:00,
2013-03-23 12:00:00,54.2,49.5,29.74,SSE,163,7.0,7.0,84,0.00,,,0.00,Wunderground v.1.15,2013-03-23 17:00:00,
2013-03-23 12:10:00,54.6,50.2,29.74,South,180,5.0,5.0,85,0.00,,,0.00,Wunderground v.1.15,2013-03-23 17:10:00,
2013-03-23 12:20:00,55.1,50.0,29.74,South,180,3.0,3.0,83,0.00,,,0.00,Wunderground v.1.15,2013-03-23 17:20:00,
2013-03-23 12:30:00,55.4,50.0,29.74,South,180,1.0,1.0,82,0.00,,,0.00,Wunderground v.1.15,2013-03-23 17:30:00,
2013-03-23 12:40:00,55.7,50.3,29.73,South,180,0.0,8.0,82,0.00,,,0.00,Wunderground v.1.15,2013-03-23 17:40:00,
2013-03-23 12:50:00,56.3,50.9,29.72,South,180,2.0,8.0,82,0.00,,,0.00,Wunderground v.1.15,2013-03-23 17:50:00,
2013-03-23 13:00:00,57.1,51.3,29.72,South,180,1.0,8.0,81,0.00,,,0.00,Wunderground v.1.15,2013-03-23 18:00:00,
2013-03-23 13:10:00,58.6,52.1,29.72,South,170,4.0,8.0,79,0.00,,,0.00,Wunderground v.1.15,2013-03-23 18:10:00,
2013-03-23 13:20:00,59.9,52.7,29.71,South,173,5.0,5.0,77,0.00,,,0.00,Wunderground v.1.15,2013-03-23 18:20:00,
2013-03-23 13:30:00,60.5,52.5,29.70,SSE,162,5.0,8.0,75,0.00,,,0.00,Wunderground v.1.15,2013-03-23 18:30:00,
2013-03-23 13:40:00,61.4,53.0,29.69,South,178,5.0,5.0,74,0.00,,,0.00,Wunderground v.1.15,2013-03-23 18:40:00,
2013-03-23 13:50:00,62.2,53.4,29.69,South,180,2.0,2.0,73,0.00,,,0.00,Wunderground v.1.15,2013-03-23 18:50:00,
2013-03-23 14:00:00,63.5,53.5,29.68,SSW,202,2.0,2.0,70,0.00,,,0.00,Wunderground v.1.15,2013-03-23 19:00:00,
2013-03-23 14:10:00,64.9,54.9,29.67,SSE,164,2.0,8.0,70,0.00,,,0.00,Wunderground v.1.15,2013-03-23 19:10:00,
2013-03-23 14:20:00,66.1,54.0,29.67,South,184,3.0,3.0,65,0.00,,,0.00,Wunderground v.1.15,2013-03-23 19:20:00,
2013-03-23 14:30:00,67.0,54.4,29.66,South,184,1.0,1.0,64,0.00,,,0.00,Wunderground v.1.15,2013-03-23 19:30:00,
2013-03-23 14:40:00,68.3,54.8,29.66,South,178,1.0,1.0,62,0.00,,,0.00,Wunderground v.1.15,2013-03-23 19:40:00,
2013-03-23 14:50:00,69.1,53.7,29.64,WSW,242,2.0,2.0,58,0.00,,,0.00,Wunderground v.1.15,2013-03-23 19:50:00,
2013-03-23 15:00:00,69.7,53.8,29.64,WSW,246,0.0,8.0,57,0.00,,,0.00,Wunderground v.1.15,2013-03-23 20:00:00,
2013-03-23 15:10:00,70.7,53.7,29.63,NE,44,1.0,1.0,55,0.00,,,0.00,Wunderground v.1.15,2013-03-23 20:10:00,
2013-03-23 15:20:00,71.2,52.1,29.62,North,360,2.0,8.0,51,0.00,,,0.00,Wunderground v.1.15,2013-03-23 20:20:00,
2013-03-23 15:30:00,71.7,52.6,29.62,NNW,340,2.0,2.0,51,0.00,,,0.00,Wunderground v.1.15,2013-03-23 20:30:00,
2013-03-23 15:40:00,72.2,53.1,29.60,North,5,1.0,8.0,51,0.00,,,0.00,Wunderground v.1.15,2013-03-23 20:40:00,
2013-03-23 15:50:00,72.9,52.6,29.60,NE,36,3.0,8.0,49,0.00,,,0.00,Wunderground v.1.15,2013-03-23 20:50:00,
2013-03-23 16:00:00,73.4,51.4,29.59,NNE,30,1.0,8.0,46,0.00,,,0.00,Wunderground v.1.15,2013-03-23 21:00:00,
2013-03-23 16:10:00,74.0,50.7,29.59,NNE,16,7.0,7.0,44,0.00,,,0.00,Wunderground v.1.15,2013-03-23 21:10:00,
2013-03-23 16:20:00,74.8,48.9,29.58,NE,38,4.0,8.0,40,0.00,,,0.00,Wunderground v.1.15,2013-03-23 21:20:00,
2013-03-23 16:30:00,75.7,50.3,29.58,North,360,5.0,8.0,41,0.00,,,0.00,Wunderground v.1.15,2013-03-23 21:30:00,
2013-03-23 16:40:00,75.9,48.5,29.58,NW,314,4.0,8.0,38,0.00,,,0.00,Wunderground v.1.15,2013-03-23 21:40:00,
2013-03-23 16:50:00,77.0,48.0,29.58,NNW,346,3.0,8.0,36,0.00,,,0.00,Wunderground v.1.15,2013-03-23 21:50:00,
2013-03-23 17:00:00,77.2,48.2,29.58,North,11,3.0,3.0,36,0.00,,,0.00,Wunderground v.1.15,2013-03-23 22:00:00,
2013-03-23 17:10:00,77.4,50.5,29.58,NE,43,3.0,8.0,39,0.00,,,0.00,Wunderground v.1.15,2013-03-23 22:10:00,
2013-03-23 17:20:00,77.2,47.4,29.58,North,5,5.0,5.0,35,0.00,,,0.00,Wunderground v.1.15,2013-03-23 22:20:00,
2013-03-23 17:30:00,77.2,49.6,29.58,NNE,24,3.0,3.0,38,0.00,,,0.00,Wunderground v.1.15,2013-03-23 22:30:00,
2013-03-23 17:40:00,77.0,48.0,29.57,NE,51,2.0,8.0,36,0.00,,,0.00,Wunderground v.1.15,2013-03-23 22:40:00,
2013-03-23 17:50:00,77.1,48.1,29.57,NE,51,1.0,8.0,36,0.00,,,0.00,Wunderground v.1.15,2013-03-23 22:50:00,
2013-03-23 18:00:00,77.3,47.5,29.57,NE,51,3.0,8.0,35,0.00,,,0.00,Wunderground v.1.15,2013-03-23 23:00:00,
2013-03-23 18:10:00,76.9,50.7,29.57,NE,44,7.0,9.0,40,0.00,,,0.00,Wunderground v.1.15,2013-03-23 23:10:00,
2013-03-23 18:20:00,76.0,49.9,29.57,NE,44,8.0,8.0,40,0.00,,,0.00,Wunderground v.1.15,2013-03-23 23:20:00,
2013-03-23 18:30:00,75.6,50.9,29.56,ENE,59,8.0,8.0,42,0.00,,,0.00,Wunderground v.1.15,2013-03-23 23:30:00,
2013-03-23 18:40:00,75.5,49.5,29.56,ENE,78,6.0,8.0,40,0.00,,,0.00,Wunderground v.1.15,2013-03-23 23:40:00,
2013-03-23 18:50:00,74.8,50.2,29.57,East,96,8.0,8.0,42,0.00,,,0.00,Wunderground v.1.15,2013-03-23 23:50:00,
2013-03-23 19:00:00,74.2,50.3,29.56,ENE,77,9.0,9.0,43,0.00,,,0.00,Wunderground v.1.15,2013-03-24 00:00:00,
2013-03-23 19:10:00,73.5,50.2,29.57,East,80,6.0,8.0,44,0.00,,,0.00,Wunderground v.1.15,2013-03-24 00:10:00,
2013-03-23 19:20:00,72.8,50.2,29.57,ENE,74,6.0,6.0,45,0.00,,,0.00,Wunderground v.1.15,2013-03-24 00:20:00,
2013-03-23 19:30:00,72.1,50.2,29.57,ENE,73,2.0,2.0,46,0.00,,,0.00,Wunderground v.1.15,2013-03-24 00:30:00,
2013-03-23 19:40:00,71.5,50.2,29.57,ENE,78,1.0,1.0,47,0.00,,,0.00,Wunderground v.1.15,2013-03-24 00:40:00,
2013-03-23 19:50:00,70.9,51.9,29.58,ENE,78,0.0,8.0,51,0.00,,,0.00,Wunderground v.1.15,2013-03-24 00:50:00,
2013-03-23 20:00:00,70.1,50.6,29.58,ENE,78,0.0,8.0,50,0.00,,,0.00,Wunderground v.1.15,2013-03-24 01:00:00,
2013-03-23 20:10:00,69.4,51.5,29.58,East,80,3.0,3.0,53,0.00,,,0.00,Wunderground v.1.15,2013-03-24 01:10:00,
2013-03-23 20:20:00,68.5,50.7,29.58,East,80,0.0,8.0,53,0.00,,,0.00,Wunderground v.1.15,2013-03-24 01:20:00,
2013-03-23 20:30:00,68.3,50.5,29.58,East,81,1.0,8.0,53,0.00,,,0.00,Wunderground v.1.15,2013-03-24 01:30:00,
2013-03-23 20:40:00,68.0,49.7,29.60,East,89,1.0,1.0,52,0.00,,,0.00,Wunderground v.1.15,2013-03-24 01:40:00,
2013-03-23 20:50:00,66.8,49.6,29.60,East,89,3.0,3.0,54,0.00,,,0.00,Wunderground v.1.15,2013-03-24 01:50:00,
2013-03-23 21:00:00,65.9,49.3,29.61,East,89,0.0,8.0,55,0.00,,,0.00,Wunderground v.1.15,2013-03-24 02:00:00,
2013-03-23 21:10:00,65.9,51.6,29.61,SE,132,4.0,8.0,60,0.00,,,0.00,Wunderground v.1.15,2013-03-24 02:10:00,
2013-03-23 21:20:00,65.1,52.2,29.61,SE,133,2.0,2.0,63,0.00,,,0.00,Wunderground v.1.15,2013-03-24 02:20:00,
2013-03-23 21:30:00,64.5,53.3,29.61,SE,133,1.0,8.0,67,0.00,,,0.00,Wunderground v.1.15,2013-03-24 02:30:00,
2013-03-23 21:40:00,63.8,53.4,29.61,SE,135,3.0,3.0,69,0.00,,,0.00,Wunderground v.1.15,2013-03-24 02:40:00,
2013-03-23 21:50:00,63.5,54.3,29.62,SE,140,2.0,2.0,72,0.00,,,0.00,Wunderground v.1.15,2013-03-24 02:50:00,
2013-03-23 22:00:00,63.9,54.7,29.63,SE,140,0.0,8.0,72,0.00,,,0.00,Wunderground v.1.15,2013-03-24 03:00:00,
2013-03-23 22:10:00,63.5,54.7,29.63,SE,142,1.0,1.0,73,0.00,,,0.00,Wunderground v.1.15,2013-03-24 03:10:00,
2013-03-23 22:20:00,62.7,55.4,29.63,SE,142,4.0,8.0,77,0.00,,,0.00,Wunderground v.1.15,2013-03-24 03:20:00,
2013-03-23 22:30:00,62.6,56.0,29.63,SE,142,6.0,6.0,79,0.00,,,0.00,Wunderground v.1.15,2013-03-24 03:30:00,
2013-03-23 22:40:00,62.5,56.2,29.63,SSE,153,5.0,5.0,80,0.00,,,0.00,Wunderground v.1.15,2013-03-24 03:40:00,
2013-03-23 22:50:00,61.9,55.7,29.63,SSE,153,1.0,8.0,80,0.00,,,0.00,Wunderground v.1.15,2013-03-24 03:50:00,
2013-03-23 23:00:00,61.6,56.0,29.65,SSE,150,3.0,3.0,82,0.00,,,0.00,Wunderground v.1.15,2013-03-24 04:00:00,
2013-03-23 23:10:00,61.4,55.9,29.66,SSE,150,0.0,8.0,82,0.00,,,0.00,Wunderground v.1.15,2013-03-24 04:10:00,
2013-03-23 23:20:00,60.1,53.6,29.69,NNE,19,11.0,12.0,79,0.00,,,0.00,Wunderground v.1.15,2013-03-24 04:20:00,
2013-03-23 23:30:00,59.3,53.1,29.69,North,355,12.0,13.0,80,0.00,,,0.00,Wunderground v.1.15,2013-03-24 04:30:00,
2013-03-23 23:40:00,58.9,52.4,29.71,NNE,33,14.0,17.0,79,0.00,,,0.00,Wunderground v.1.15,2013-03-24 04:40:00,
2013-03-23 23:50:00,57.2,51.1,29.75,North,360,17.0,17.0,80,0.00,,,0.00,Wunderground v.1.15,2013-03-24 04:50:00,